createdAt,value
2019-06-26T00:01:10.444Z,10.97
2019-06-26T00:03:59.289Z,13.17
2019-06-26T00:06:47.426Z,10.17
2019-06-26T00:09:35.098Z,10.37
2019-06-26T00:12:23.266Z,10.50
2019-06-26T00:15:12.588Z,13.60
2019-06-26T00:18:01.108Z,11.17
2019-06-26T00:20:49.195Z,12.00
2019-06-26T00:23:38.062Z,11.67
2019-06-26T00:26:26.274Z,11.80
2019-06-26T00:29:14.513Z,11.57
2019-06-26T00:32:02.873Z,12.77
2019-06-26T00:34:51.494Z,13.87
2019-06-26T00:37:39.585Z,14.70
2019-06-26T00:40:28.089Z,12.80
2019-06-26T00:43:17.062Z,13.10
2019-06-26T00:46:05.607Z,14.57
2019-06-26T00:48:53.941Z,14.37
2019-06-26T00:51:41.942Z,13.73
2019-06-26T00:54:30.901Z,14.13
2019-06-26T00:57:20.098Z,17.23
2019-06-26T01:00:09.894Z,15.63
2019-06-26T01:02:58.808Z,15.67
2019-06-26T01:05:47.133Z,16.87
2019-06-26T01:08:34.883Z,16.87
2019-06-26T01:11:22.502Z,17.67
2019-06-26T01:14:11.025Z,17.33
2019-06-26T01:16:59.636Z,16.60
2019-06-26T01:19:47.634Z,18.13
2019-06-26T01:22:36.518Z,18.90
2019-06-26T01:25:24.298Z,18.07
2019-06-26T01:28:12.634Z,17.00
2019-06-26T01:31:00.514Z,18.30
2019-06-26T01:33:48.985Z,18.73
2019-06-26T01:36:37.433Z,17.87
2019-06-26T01:39:25.189Z,18.43
2019-06-26T01:42:14.158Z,19.73
2019-06-26T01:45:02.860Z,16.80
2019-06-26T01:47:51.111Z,18.13
2019-06-26T01:50:40.258Z,18.30
2019-06-26T01:53:28.898Z,15.97
2019-06-26T01:56:17.593Z,16.93
2019-06-26T01:59:06.678Z,17.07
2019-06-26T02:01:55.271Z,17.67
2019-06-26T02:04:43.384Z,17.63
2019-06-26T02:07:31.413Z,18.73
2019-06-26T02:10:19.742Z,17.73
2019-06-26T02:13:08.824Z,16.40
2019-06-26T02:15:56.610Z,17.17
2019-06-26T02:18:49.972Z,17.33
2019-06-26T02:21:37.783Z,16.57
2019-06-26T02:24:26.674Z,17.00
2019-06-26T02:27:14.345Z,17.43
2019-06-26T02:30:02.924Z,18.50
2019-06-26T02:32:51.673Z,16.20
2019-06-26T02:35:40.028Z,16.90
2019-06-26T02:38:28.282Z,18.73
2019-06-26T02:41:17.168Z,16.80
2019-06-26T02:44:05.277Z,20.00
2019-06-26T02:46:53.135Z,17.37
2019-06-26T02:49:40.752Z,21.23
2019-06-26T02:52:28.768Z,20.20
2019-06-26T02:55:17.329Z,19.00
2019-06-26T02:58:06.102Z,19.87
2019-06-26T03:00:53.905Z,22.40
2019-06-26T03:03:42.619Z,18.60
2019-06-26T03:06:30.975Z,23.03
2019-06-26T03:09:19.302Z,22.20
2019-06-26T03:12:07.459Z,20.57
2019-06-26T03:15:08.246Z,18.97
2019-06-26T03:17:55.488Z,22.10
2019-06-26T03:20:39.986Z,18.10
2019-06-26T03:23:28.895Z,23.40
2019-06-26T03:26:17.381Z,21.80
2019-06-26T03:29:05.570Z,21.67
2019-06-26T03:31:54.529Z,20.60
2019-06-26T03:34:43.088Z,19.17
2019-06-26T03:37:32.534Z,22.90
2019-06-26T03:40:20.712Z,24.07
2019-06-26T03:43:08.773Z,21.60
2019-06-26T03:45:57.320Z,22.77
2019-06-26T03:48:46.024Z,21.87
2019-06-26T03:51:34.439Z,21.50
2019-06-26T03:54:22.278Z,25.33
2019-06-26T03:57:11.331Z,25.83
2019-06-26T03:59:59.942Z,23.33
2019-06-26T04:02:48.086Z,25.60
2019-06-26T04:05:36.335Z,27.43
2019-06-26T04:08:25.133Z,27.10
2019-06-26T04:11:13.635Z,24.60
2019-06-26T04:14:01.781Z,24.17
2019-06-26T04:16:49.833Z,27.47
2019-06-26T04:19:38.184Z,26.90
2019-06-26T04:22:26.789Z,26.27
2019-06-26T04:25:14.922Z,24.37
2019-06-26T04:28:06.278Z,32.20
2019-06-26T04:30:52.821Z,31.70
2019-06-26T04:33:41.382Z,36.87
2019-06-26T04:36:29.999Z,37.40
2019-06-26T04:39:18.450Z,28.83
2019-06-26T04:42:06.682Z,32.97
2019-06-26T04:44:55.118Z,32.67
2019-06-26T04:47:43.425Z,29.33
2019-06-26T04:50:31.695Z,44.80
2019-06-26T04:53:20.304Z,36.13
2019-06-26T04:56:09.358Z,37.87
2019-06-26T04:58:57.209Z,41.30
2019-06-26T05:01:45.398Z,49.50
2019-06-26T05:04:33.218Z,49.20
2019-06-26T05:07:21.158Z,53.57
2019-06-26T05:10:09.849Z,49.50
2019-06-26T05:12:57.881Z,48.70
2019-06-26T05:15:46.723Z,45.07
2019-06-26T05:18:35.214Z,54.93
2019-06-26T05:21:24.330Z,55.27
2019-06-26T05:24:13.249Z,67.60
2019-06-26T05:27:01.561Z,71.33
2019-06-26T05:29:50.153Z,68.53
2019-06-26T05:32:38.529Z,76.10
2019-06-26T05:35:27.053Z,73.03
2019-06-26T05:38:16.052Z,77.97
2019-06-26T05:41:04.973Z,79.90
2019-06-26T05:43:53.054Z,71.40
2019-06-26T05:46:40.725Z,83.10
2019-06-26T05:49:28.679Z,79.17
2019-06-26T05:52:17.417Z,80.87
2019-06-26T05:55:06.601Z,83.93
2019-06-26T05:57:54.983Z,80.77
2019-06-26T06:00:42.995Z,84.90
2019-06-26T06:03:31.173Z,83.20
2019-06-26T06:06:20.447Z,82.37
2019-06-26T06:09:08.798Z,81.00
2019-06-26T06:11:56.895Z,84.50
2019-06-26T06:14:45.817Z,81.20
2019-06-26T06:17:34.151Z,83.20
2019-06-26T06:20:30.047Z,81.40
2019-06-26T06:23:18.353Z,83.60
2019-06-26T06:26:06.701Z,80.67
2019-06-26T06:28:55.153Z,79.40
2019-06-26T06:31:43.110Z,80.73
2019-06-26T06:34:31.670Z,76.77
2019-06-26T06:37:20.208Z,85.40
2019-06-26T06:40:08.642Z,84.10
2019-06-26T06:42:57.013Z,78.53
2019-06-26T06:45:44.962Z,79.30
2019-06-26T06:48:33.158Z,80.10
2019-06-26T06:51:21.472Z,82.10
2019-06-26T06:54:09.598Z,77.83
2019-06-26T06:56:58.262Z,79.47
2019-06-26T06:59:46.268Z,76.20
2019-06-26T07:02:34.661Z,78.80
2019-06-26T07:05:23.318Z,72.90
2019-06-26T07:08:12.366Z,78.77
2019-06-26T07:11:01.125Z,80.40
2019-06-26T07:13:49.197Z,72.87
2019-06-26T07:16:37.621Z,76.90
2019-06-26T07:19:26.151Z,71.57
2019-06-26T07:22:14.821Z,73.73
2019-06-26T07:25:03.264Z,76.20
2019-06-26T07:27:52.495Z,70.20
2019-06-26T07:30:41.089Z,70.77
2019-06-26T07:33:29.522Z,68.57
2019-06-26T07:36:18.421Z,69.37
2019-06-26T07:39:07.250Z,66.83
2019-06-26T07:41:56.425Z,70.30
2019-06-26T07:44:44.519Z,61.23
2019-06-26T07:47:43.344Z,54.67
2019-06-26T07:50:22.709Z,62.70
2019-06-26T07:53:11.010Z,54.83
2019-06-26T07:55:59.966Z,53.27
2019-06-26T07:58:48.706Z,52.57
2019-06-26T08:01:36.999Z,43.07
2019-06-26T08:04:25.937Z,39.97
2019-06-26T08:07:14.866Z,47.10
2019-06-26T08:10:03.083Z,39.05
2019-06-26T08:12:51.998Z,36.63
2019-06-26T08:15:40.522Z,35.03
2019-06-26T08:18:28.818Z,34.78
2019-06-26T08:21:17.293Z,32.17
2019-06-26T08:24:06.157Z,31.15
2019-06-26T08:26:54.934Z,38.67
2019-06-26T08:29:42.953Z,37.50
2019-06-26T08:32:30.857Z,33.30
2019-06-26T08:35:19.408Z,30.23
2019-06-26T08:38:11.368Z,31.93
2019-06-26T08:40:57.138Z,31.12
2019-06-26T08:43:45.628Z,32.40
2019-06-26T08:46:34.750Z,29.12
2019-06-26T08:49:26.004Z,28.42
2019-06-26T08:52:14.042Z,26.60
2019-06-26T08:55:02.286Z,25.15
2019-06-26T08:57:51.164Z,29.25
2019-06-26T09:00:39.612Z,26.87
2019-06-26T09:03:27.519Z,20.35
2019-06-26T09:06:16.254Z,20.68
2019-06-26T09:09:07.013Z,21.10
2019-06-26T09:11:55.641Z,26.33
2019-06-26T09:14:44.322Z,22.02
2019-06-26T09:17:32.614Z,26.33
2019-06-26T09:20:28.494Z,28.67
2019-06-26T09:23:16.933Z,25.30
2019-06-26T09:26:05.008Z,29.37
2019-06-26T09:28:53.922Z,34.23
2019-06-26T09:31:42.519Z,32.15
2019-06-26T09:34:30.819Z,26.50
2019-06-26T09:37:18.959Z,29.45
2019-06-26T09:40:07.795Z,26.82
2019-06-26T09:42:56.250Z,24.00
2019-06-26T09:45:44.149Z,19.90
2019-06-26T09:48:31.969Z,23.18
2019-06-26T09:51:19.820Z,20.30
2019-06-26T09:54:08.211Z,20.75
2019-06-26T09:56:56.443Z,24.43
2019-06-26T09:59:44.926Z,26.05
2019-06-26T10:02:33.725Z,19.62
2019-06-26T10:05:22.099Z,25.05
2019-06-26T10:08:10.181Z,26.70
2019-06-26T10:10:58.258Z,27.37
2019-06-26T10:13:46.400Z,31.33
2019-06-26T10:16:35.541Z,23.42
2019-06-26T10:19:23.686Z,21.33
2019-06-26T10:22:11.572Z,19.67
2019-06-26T10:24:59.765Z,26.77
2019-06-26T10:27:48.073Z,26.27
2019-06-26T10:30:36.333Z,28.25
2019-06-26T10:33:24.884Z,25.02
2019-06-26T10:36:13.648Z,27.15
2019-06-26T10:39:02.103Z,20.75
2019-06-26T10:41:54.580Z,23.90
2019-06-26T10:44:39.965Z,21.70
2019-06-26T10:47:28.530Z,20.20
2019-06-26T10:50:17.310Z,25.92
2019-06-26T10:53:05.224Z,23.87
2019-06-26T10:55:53.348Z,21.12
2019-06-26T10:58:41.398Z,20.25
2019-06-26T11:01:30.066Z,22.10
2019-06-26T11:04:18.678Z,23.27
2019-06-26T11:07:07.046Z,27.45
2019-06-26T11:09:55.434Z,32.67
2019-06-26T11:12:43.592Z,29.85
2019-06-26T11:15:32.403Z,34.10
2019-06-26T11:18:20.578Z,28.75
2019-06-26T11:21:09.151Z,26.50
2019-06-26T11:23:57.598Z,30.65
2019-06-26T11:26:46.466Z,19.00
2019-06-26T11:29:35.022Z,30.02
2019-06-26T11:32:23.354Z,26.40
2019-06-26T11:35:11.156Z,22.75
2019-06-26T11:37:59.106Z,22.05
2019-06-26T11:40:47.159Z,22.50
2019-06-26T11:43:36.209Z,21.20
2019-06-26T11:46:24.324Z,19.17
2019-06-26T11:49:12.430Z,25.57
2019-06-26T11:52:00.898Z,22.00
2019-06-26T11:55:02.143Z,27.70
2019-06-26T11:57:39.977Z,28.00
2019-06-26T12:00:28.900Z,23.25
2019-06-26T12:03:17.329Z,23.27
2019-06-26T12:06:17.882Z,24.18
2019-06-26T12:08:55.725Z,26.70
2019-06-26T12:11:44.170Z,27.40
2019-06-26T12:14:32.503Z,31.52
2019-06-26T12:17:20.965Z,23.55
2019-06-26T12:20:18.518Z,25.05
2019-06-26T12:22:58.967Z,24.43
2019-06-26T12:25:48.101Z,20.05
2019-06-26T12:28:36.336Z,25.32
2019-06-26T12:31:24.751Z,25.20
2019-06-26T12:34:12.813Z,31.33
2019-06-26T12:37:00.650Z,26.62
2019-06-26T12:39:48.962Z,25.55
2019-06-26T12:42:38.263Z,33.58
2019-06-26T12:45:26.237Z,26.77
2019-06-26T12:48:16.317Z,28.47
2019-06-26T12:51:05.841Z,24.45
2019-06-26T12:53:58.316Z,26.40
2019-06-26T12:56:44.906Z,26.10
2019-06-26T12:59:33.307Z,26.52
2019-06-26T13:02:21.585Z,27.48
2019-06-26T13:05:11.758Z,25.20
2019-06-26T13:08:00.762Z,25.32
2019-06-26T13:10:50.560Z,20.45
2019-06-26T13:13:38.948Z,21.07
2019-06-26T13:16:27.641Z,18.45
2019-06-26T13:19:16.666Z,21.70
2019-06-26T13:22:05.233Z,23.38
2019-06-26T13:24:53.755Z,21.23
2019-06-26T13:27:42.531Z,21.17
2019-06-26T13:30:37.859Z,18.75
2019-06-26T13:33:26.209Z,18.10
2019-06-26T13:36:14.311Z,19.45
2019-06-26T13:39:03.318Z,17.67
2019-06-26T13:41:51.979Z,20.52
2019-06-26T13:44:39.890Z,16.77
2019-06-26T13:47:27.851Z,19.25
2019-06-26T13:50:16.934Z,16.55
2019-06-26T13:53:05.812Z,16.45
2019-06-26T13:55:54.858Z,15.25
2019-06-26T13:58:44.052Z,14.63
2019-06-26T14:01:32.861Z,17.95
2019-06-26T14:04:21.170Z,17.92
2019-06-26T14:07:09.537Z,15.03
2019-06-26T14:09:58.165Z,15.98
2019-06-26T14:12:46.650Z,14.83
2019-06-26T14:15:35.209Z,15.63
2019-06-26T14:18:23.685Z,18.25
2019-06-26T14:21:24.584Z,16.90
2019-06-26T14:24:01.390Z,13.45
2019-06-26T14:26:49.256Z,14.45
2019-06-26T14:29:37.362Z,11.78
2019-06-26T14:32:25.586Z,13.13
2019-06-26T14:35:14.327Z,13.38
2019-06-26T14:38:03.079Z,11.85
2019-06-26T14:40:51.407Z,12.98
2019-06-26T14:43:39.787Z,12.50
2019-06-26T14:46:28.297Z,12.98
2019-06-26T14:49:16.962Z,11.18
2019-06-26T14:52:05.110Z,10.65
2019-06-26T14:54:53.193Z,11.95
2019-06-26T14:57:41.723Z,11.53
2019-06-26T15:00:29.763Z,12.37
2019-06-26T15:03:17.963Z,11.60
2019-06-26T15:06:16.217Z,12.90
2019-06-26T15:08:56.549Z,10.20
2019-06-26T15:11:45.502Z,10.15
2019-06-26T15:14:33.641Z,9.40
2019-06-26T15:17:21.450Z,9.08
2019-06-26T15:20:09.750Z,10.23
2019-06-26T15:22:58.945Z,10.15
2019-06-26T15:25:47.526Z,7.97
2019-06-26T15:28:35.874Z,9.85
2019-06-26T15:31:23.650Z,9.45
2019-06-26T15:34:12.012Z,11.38
2019-06-26T15:37:00.429Z,8.95
2019-06-26T15:39:49.624Z,9.18
2019-06-26T15:42:37.939Z,8.25
2019-06-26T15:45:26.038Z,9.83
2019-06-26T15:48:14.254Z,9.15
2019-06-26T15:51:02.746Z,9.48
2019-06-26T15:53:51.042Z,11.10
2019-06-26T15:56:39.535Z,10.05
2019-06-26T15:59:30.997Z,13.30
2019-06-26T16:02:18.154Z,10.65
2019-06-26T16:05:06.422Z,10.55
2019-06-26T16:07:54.727Z,10.75
2019-06-26T16:10:43.545Z,10.80
2019-06-26T16:13:31.745Z,10.00
2019-06-26T16:16:20.702Z,12.68
2019-06-26T16:19:12.902Z,10.32
2019-06-26T16:22:00.971Z,10.15
2019-06-26T16:24:48.638Z,12.15
2019-06-26T16:27:36.714Z,12.05
2019-06-26T16:30:24.579Z,12.60
2019-06-26T16:33:13.158Z,18.50
2019-06-26T16:36:01.548Z,13.43
2019-06-26T16:38:49.852Z,12.30
2019-06-26T16:41:38.069Z,13.47
2019-06-26T16:44:26.481Z,13.07
2019-06-26T16:47:14.633Z,12.50
2019-06-26T16:50:03.850Z,13.43
2019-06-26T16:52:52.262Z,12.40
2019-06-26T16:55:40.256Z,13.27
2019-06-26T16:58:31.990Z,11.80
2019-06-26T17:01:20.245Z,11.70
2019-06-26T17:04:08.630Z,10.63
2019-06-26T17:06:57.454Z,11.53
2019-06-26T17:09:46.106Z,10.60
2019-06-26T17:12:35.073Z,10.13
2019-06-26T17:15:24.057Z,10.47
2019-06-26T17:18:12.430Z,9.33
2019-06-26T17:21:00.441Z,10.07
2019-06-26T17:23:48.840Z,9.23
2019-06-26T17:26:37.382Z,8.30
2019-06-26T17:29:25.776Z,8.37
2019-06-26T17:32:13.590Z,12.30
2019-06-26T17:35:02.254Z,13.13
2019-06-26T17:37:50.670Z,8.30
2019-06-26T17:40:39.254Z,8.30
2019-06-26T17:43:27.910Z,7.70
2019-06-26T17:46:15.990Z,9.40
2019-06-26T17:49:04.645Z,8.47
2019-06-26T17:51:52.878Z,8.60
2019-06-26T17:54:40.960Z,7.20
2019-06-26T17:57:28.875Z,7.93
2019-06-26T18:00:18.959Z,8.50
2019-06-26T18:03:07.454Z,8.30
2019-06-26T18:05:55.863Z,7.40
2019-06-26T18:08:44.434Z,7.80
2019-06-26T18:11:32.725Z,8.27
2019-06-26T18:14:21.125Z,9.30
2019-06-26T18:17:21.694Z,8.43
2019-06-26T18:19:59.842Z,8.20
2019-06-26T18:22:48.307Z,7.27
2019-06-26T18:25:36.505Z,7.00
2019-06-26T18:28:24.518Z,7.50
2019-06-26T18:31:12.752Z,8.23
2019-06-26T18:34:01.082Z,7.83
2019-06-26T18:36:49.466Z,6.40
2019-06-26T18:39:37.105Z,7.90
2019-06-26T18:42:25.297Z,12.40
2019-06-26T18:45:14.833Z,7.20
2019-06-26T18:48:03.182Z,7.20
2019-06-26T18:50:51.017Z,7.83
2019-06-26T18:53:52.653Z,9.17
2019-06-26T18:56:29.733Z,6.23
2019-06-26T18:59:18.396Z,6.27
2019-06-26T19:02:06.461Z,5.87
2019-06-26T19:04:54.670Z,7.20
2019-06-26T19:07:43.014Z,6.77
2019-06-26T19:10:31.658Z,8.90
2019-06-26T19:13:20.568Z,8.17
2019-06-26T19:16:09.414Z,7.17
2019-06-26T19:18:56.973Z,6.90
2019-06-26T19:21:45.203Z,6.97
2019-06-26T19:24:34.361Z,7.10
2019-06-26T19:27:22.599Z,5.77
2019-06-26T19:30:11.711Z,6.20
2019-06-26T19:33:00.353Z,7.07
2019-06-26T19:35:48.785Z,5.80
2019-06-26T19:38:37.012Z,7.03
2019-06-26T19:41:25.125Z,6.63
2019-06-26T19:44:13.596Z,6.67
2019-06-26T19:47:01.779Z,5.20
2019-06-26T19:49:49.975Z,4.70
2019-06-26T19:52:38.086Z,5.43
2019-06-26T19:55:26.387Z,6.27
2019-06-26T19:58:15.144Z,5.60
2019-06-26T20:01:03.898Z,4.43
2019-06-26T20:03:51.709Z,7.80
2019-06-26T20:06:39.398Z,5.23
2019-06-26T20:09:27.491Z,6.40
2019-06-26T20:12:15.237Z,6.73
2019-06-26T20:15:03.706Z,6.23
2019-06-26T20:17:51.744Z,4.93
2019-06-26T20:20:40.022Z,6.70
2019-06-26T20:23:27.862Z,9.43
2019-06-26T20:26:16.121Z,5.43
2019-06-26T20:29:04.588Z,6.77
2019-06-26T20:31:53.070Z,5.20
2019-06-26T20:34:41.561Z,7.13
2019-06-26T20:37:30.257Z,6.80
2019-06-26T20:40:18.636Z,10.10
2019-06-26T20:43:07.296Z,6.87
2019-06-26T20:45:55.463Z,8.60
2019-06-26T20:48:44.245Z,7.43
2019-06-26T20:51:32.577Z,10.13
2019-06-26T20:54:20.405Z,7.20
2019-06-26T20:57:08.974Z,9.50
2019-06-26T20:59:57.374Z,11.30
2019-06-26T21:02:46.129Z,10.83
2019-06-26T21:05:34.380Z,12.83
2019-06-26T21:08:22.633Z,18.40
2019-06-26T21:11:11.241Z,7.93
2019-06-26T21:13:59.277Z,10.60
2019-06-26T21:16:47.679Z,11.23
2019-06-26T21:19:36.475Z,6.73
2019-06-26T21:22:25.180Z,11.50
2019-06-26T21:25:19.015Z,10.60
2019-06-26T21:28:03.390Z,10.00
2019-06-26T21:30:52.140Z,10.50
2019-06-26T21:33:40.208Z,8.73
2019-06-26T21:36:28.691Z,9.40
2019-06-26T21:39:16.605Z,9.90
2019-06-26T21:42:04.675Z,13.70
2019-06-26T21:44:52.467Z,12.53
2019-06-26T21:47:41.549Z,7.37
2019-06-26T21:50:29.831Z,8.03
2019-06-26T21:53:18.391Z,8.97
2019-06-26T21:56:08.278Z,9.23
2019-06-26T21:58:56.356Z,9.10
2019-06-26T22:01:46.071Z,9.07
2019-06-26T22:04:34.250Z,6.30
2019-06-26T22:07:22.426Z,8.53
2019-06-26T22:10:12.091Z,12.77
2019-06-26T22:13:00.254Z,6.90
2019-06-26T22:15:48.562Z,9.47
2019-06-26T22:18:37.022Z,7.10
2019-06-26T22:21:25.827Z,11.47
2019-06-26T22:24:14.582Z,7.43
2019-06-26T22:27:02.945Z,9.27
2019-06-26T22:29:51.598Z,6.30
2019-06-26T22:32:39.595Z,6.13
2019-06-26T22:35:27.520Z,9.80
2019-06-26T22:38:15.470Z,6.93
2019-06-26T22:41:03.337Z,7.70
2019-06-26T22:43:50.987Z,8.57
2019-06-26T22:46:40.332Z,10.47
2019-06-26T22:49:29.061Z,6.83
2019-06-26T22:52:17.499Z,7.63
2019-06-26T22:55:05.854Z,9.90
2019-06-26T22:57:54.297Z,6.40
2019-06-26T23:00:42.901Z,8.43
2019-06-26T23:03:31.225Z,9.63
2019-06-26T23:06:19.908Z,9.30
2019-06-26T23:09:07.947Z,6.50
2019-06-26T23:11:56.467Z,6.53
2019-06-26T23:14:45.050Z,8.43
2019-06-26T23:17:33.531Z,7.37
2019-06-26T23:20:22.203Z,7.43
2019-06-26T23:23:10.926Z,8.50
2019-06-26T23:25:58.983Z,6.63
2019-06-26T23:28:47.254Z,8.17
2019-06-26T23:31:35.564Z,10.50
2019-06-26T23:34:23.538Z,8.90
2019-06-26T23:37:11.919Z,7.40
2019-06-26T23:40:00.227Z,7.43
2019-06-26T23:42:48.869Z,8.57
2019-06-26T23:45:36.569Z,8.80
2019-06-26T23:48:24.807Z,7.93
2019-06-26T23:51:13.023Z,8.77
2019-06-26T23:54:01.973Z,10.37
2019-06-26T23:56:50.551Z,5.40
2019-06-26T23:59:39.059Z,10.13
